createdAt,value
2022-07-29T00:00:41.671Z,37.42
2022-07-29T16:58:17.285Z,80.52
2022-07-29T17:00:44.554Z,81.09
2022-07-29T17:03:13.529Z,82.33
2022-07-29T17:05:52.511Z,82.22
2022-07-29T17:08:28.760Z,81.42
2022-07-29T17:11:10.180Z,80.57
2022-07-29T17:13:42.639Z,80.06
2022-07-29T17:16:10.091Z,81.10
2022-07-29T17:18:38.169Z,81.24
2022-07-29T17:21:18.168Z,81.34
2022-07-29T17:24:03.618Z,81.71
2022-07-29T17:26:31.702Z,81.25
2022-07-29T17:29:01.489Z,82.93
2022-07-29T17:31:32.563Z,82.14
2022-07-29T17:34:08.803Z,82.35
2022-07-29T17:36:43.137Z,82.93
2022-07-29T17:39:13.578Z,82.50
2022-07-29T17:44:38.517Z,82.60
2022-07-29T17:47:16.516Z,82.16
2022-07-29T17:49:49.458Z,83.52
2022-07-29T17:52:22.423Z,83.23
2022-07-29T17:54:52.214Z,81.95
2022-07-29T17:57:25.233Z,81.59
2022-07-29T17:59:58.181Z,81.21
2022-07-29T18:02:28.992Z,81.94
2022-07-29T18:04:58.175Z,82.01
2022-07-29T18:07:37.618Z,82.23
2022-07-29T18:10:27.040Z,82.10
2022-07-29T18:12:57.536Z,82.19
2022-07-29T18:15:24.929Z,82.62
2022-07-29T18:17:57.811Z,82.98
2022-07-29T18:20:30.609Z,82.89
2022-07-29T18:23:03.277Z,82.83
2022-07-29T18:25:41.091Z,83.25
2022-07-29T18:28:09.368Z,82.87
2022-07-29T18:30:40.113Z,83.35
2022-07-29T18:33:28.368Z,83.06
2022-07-29T18:36:11.159Z,83.61
2022-07-29T18:38:45.073Z,83.42
2022-07-29T18:41:14.699Z,83.52
2022-07-29T18:43:42.663Z,83.04
2022-07-29T18:46:12.505Z,83.03
2022-07-29T18:48:49.815Z,83.45
2022-07-29T18:51:20.158Z,83.83
2022-07-29T18:53:51.710Z,84.94
2022-07-29T18:56:19.216Z,84.99
2022-07-29T18:58:50.192Z,85.49
2022-07-29T19:01:19.938Z,85.93
2022-07-29T19:03:52.908Z,85.97
2022-07-29T19:06:25.769Z,85.59
2022-07-29T19:08:59.499Z,87.14
2022-07-29T19:11:32.112Z,86.92
2022-07-29T19:13:59.388Z,86.46
2022-07-29T19:16:26.826Z,86.35
2022-07-29T19:18:56.781Z,86.29
2022-07-29T19:21:39.804Z,86.04
2022-07-29T19:24:17.492Z,85.50
2022-07-29T19:26:47.382Z,85.80
2022-07-29T19:29:16.318Z,86.25
2022-07-29T19:31:50.929Z,85.74
2022-07-29T19:34:19.991Z,85.87
2022-07-29T19:36:47.233Z,85.79
2022-07-29T19:39:31.763Z,85.97
2022-07-29T19:42:13.083Z,86.36
2022-07-29T19:44:48.792Z,86.53
2022-07-29T19:47:18.782Z,86.76
2022-07-29T19:49:46.202Z,86.75
2022-07-29T19:52:15.864Z,86.32
2022-07-29T19:54:47.418Z,87.11
2022-07-29T19:57:15.822Z,86.71
2022-07-29T20:00:04.987Z,85.93
2022-07-29T20:02:40.473Z,86.03
2022-07-29T20:05:27.858Z,85.46
2022-07-29T20:08:01.283Z,84.95
2022-07-29T20:10:32.247Z,84.58
2022-07-29T20:13:02.193Z,85.45
2022-07-29T20:15:37.188Z,84.85
2022-07-29T20:18:04.720Z,85.17
2022-07-29T20:20:32.133Z,84.41
2022-07-29T20:23:05.822Z,84.22
2022-07-29T20:25:33.277Z,84.37
2022-07-29T20:28:01.787Z,84.52
2022-07-29T20:30:29.687Z,84.56
2022-07-29T20:32:59.271Z,84.48
2022-07-29T20:35:34.802Z,85.33
2022-07-29T20:38:06.470Z,85.66
2022-07-29T20:40:39.777Z,85.04
2022-07-29T20:43:11.467Z,85.22
2022-07-29T20:45:51.295Z,84.82
2022-07-29T20:48:22.479Z,84.90
2022-07-29T20:50:54.790Z,84.93
2022-07-29T20:53:25.345Z,84.87
2022-07-29T20:56:04.043Z,84.85
2022-07-29T20:58:43.629Z,85.25
2022-07-29T21:01:26.343Z,85.21
2022-07-29T21:03:57.019Z,85.07
2022-07-29T21:06:24.283Z,84.46
2022-07-29T21:09:00.978Z,84.51
2022-07-29T21:11:43.702Z,85.00
2022-07-29T21:14:44.401Z,84.84
2022-07-29T21:17:11.633Z,84.86
2022-07-29T21:19:43.403Z,84.76
2022-07-29T21:22:12.502Z,85.48
2022-07-29T21:24:45.908Z,85.57
2022-07-29T21:27:40.073Z,85.73
2022-07-29T21:30:09.113Z,85.12
2022-07-29T21:32:36.791Z,84.98
2022-07-29T21:35:18.209Z,84.89
2022-07-29T21:37:56.924Z,85.83
2022-07-29T21:40:27.133Z,84.67
2022-07-29T21:42:54.113Z,84.90
2022-07-29T21:45:24.293Z,85.24
2022-07-29T21:47:51.303Z,85.36
2022-07-29T21:50:18.670Z,85.00
2022-07-29T21:52:47.978Z,84.88
2022-07-29T21:55:15.678Z,85.37
2022-07-29T21:57:45.789Z,85.73
2022-07-29T22:00:16.680Z,85.46
2022-07-29T22:02:44.247Z,85.79
2022-07-29T22:05:15.140Z,85.67
2022-07-29T22:07:54.742Z,85.83
2022-07-29T22:10:26.214Z,85.47
2022-07-29T22:12:55.547Z,85.57
2022-07-29T22:15:24.355Z,85.42
2022-07-29T22:17:54.007Z,85.51
2022-07-29T22:20:21.599Z,85.84
2022-07-29T22:22:48.974Z,86.40
2022-07-29T22:25:16.343Z,85.88
2022-07-29T22:27:44.658Z,86.04
2022-07-29T22:30:12.474Z,85.90
2022-07-29T22:32:40.003Z,85.82
2022-07-29T22:35:08.083Z,85.54
2022-07-29T22:37:35.454Z,85.53
2022-07-29T22:40:02.998Z,85.97
2022-07-29T22:42:30.853Z,86.50
2022-07-29T22:45:00.708Z,86.41
2022-07-29T22:47:46.150Z,86.40
2022-07-29T22:50:15.592Z,86.29
2022-07-29T22:52:45.922Z,86.41
2022-07-29T22:55:14.469Z,86.86
2022-07-29T22:57:41.976Z,86.60
2022-07-29T23:00:10.038Z,86.75
2022-07-29T23:02:40.729Z,86.73
2022-07-29T23:05:11.441Z,87.88
2022-07-29T23:07:40.040Z,87.17
2022-07-29T23:10:12.853Z,87.14
2022-07-29T23:12:43.975Z,87.34
2022-07-29T23:15:11.213Z,87.41
2022-07-29T23:17:38.393Z,87.60
2022-07-29T23:20:08.065Z,87.48
2022-07-29T23:22:39.069Z,87.80
2022-07-29T23:25:06.983Z,87.66
2022-07-29T23:27:34.183Z,87.79
2022-07-29T23:30:01.537Z,87.97
2022-07-29T23:32:28.805Z,87.86
2022-07-29T23:34:56.018Z,87.85
2022-07-29T23:37:23.782Z,87.63
2022-07-29T23:39:54.237Z,87.78
2022-07-29T23:42:21.482Z,87.90
2022-07-29T23:44:48.852Z,88.22
2022-07-29T23:47:16.137Z,88.28
2022-07-29T23:49:43.502Z,87.84
2022-07-29T23:52:10.642Z,88.01
2022-07-29T23:54:38.043Z,88.03
2022-07-29T23:57:05.464Z,88.02
2022-07-29T23:59:32.993Z,88.09
